createdAt,value
2023-03-24T00:01:24.708Z,5.60
2023-03-24T00:03:53.571Z,5.59
2023-03-24T00:06:23.103Z,5.58
2023-03-24T00:08:51.468Z,5.57
2023-03-24T00:11:21.562Z,5.56
2023-03-24T00:13:50.732Z,5.53
2023-03-24T00:16:22.100Z,5.51
2023-03-24T00:18:54.287Z,5.49
2023-03-24T00:21:24.796Z,5.48
2023-03-24T00:23:55.816Z,5.46
2023-03-24T00:26:25.943Z,5.41
2023-03-24T00:28:55.180Z,5.37
2023-03-24T00:31:24.577Z,5.37
2023-03-24T00:33:54.031Z,5.36
2023-03-24T00:36:24.555Z,5.34
2023-03-24T00:38:53.780Z,5.33
2023-03-24T00:41:22.502Z,5.31
2023-03-24T00:43:53.034Z,5.29
2023-03-24T00:46:29.193Z,5.27
2023-03-24T00:49:02.798Z,5.23
2023-03-24T00:51:35.724Z,5.21
2023-03-24T00:54:04.151Z,5.19
2023-03-24T00:56:34.313Z,5.17
2023-03-24T00:59:04.487Z,5.16
2023-03-24T01:01:36.558Z,5.15
2023-03-24T01:04:06.668Z,5.16
2023-03-24T01:06:38.248Z,5.14
2023-03-24T01:09:07.788Z,5.12
2023-03-24T01:11:40.288Z,5.10
2023-03-24T01:14:11.193Z,5.12
2023-03-24T01:16:39.903Z,5.11
2023-03-24T01:19:09.314Z,5.13
2023-03-24T01:21:38.235Z,5.12
2023-03-24T01:24:07.795Z,5.12
2023-03-24T01:26:36.426Z,5.12
2023-03-24T01:29:06.536Z,5.13
2023-03-24T01:31:36.977Z,5.13
2023-03-24T01:34:05.930Z,5.13
2023-03-24T01:36:34.203Z,5.12
2023-03-24T01:39:03.194Z,5.11
2023-03-24T01:41:35.999Z,5.11
2023-03-24T01:44:28.459Z,5.10
2023-03-24T01:46:59.293Z,5.10
2023-03-24T01:49:34.512Z,5.09
2023-03-24T01:52:06.230Z,5.09
2023-03-24T01:54:38.452Z,5.09
2023-03-24T01:57:12.471Z,5.09
2023-03-24T01:59:45.793Z,5.07
2023-03-24T02:02:18.350Z,5.06
2023-03-24T02:04:54.082Z,5.09
2023-03-24T02:07:32.957Z,5.13
2023-03-24T02:10:01.990Z,5.21
2023-03-24T02:12:31.287Z,5.28
2023-03-24T02:15:00.204Z,5.35
2023-03-24T02:17:45.014Z,5.46
2023-03-24T02:21:00.512Z,5.54
2023-03-24T02:23:55.786Z,5.60
2023-03-24T02:26:45.468Z,5.67
2023-03-24T02:29:45.685Z,5.70
2023-03-24T02:32:40.221Z,5.69
2023-03-24T02:35:32.069Z,5.68
2023-03-24T02:38:29.452Z,5.67
2023-03-24T02:41:02.361Z,5.67
2023-03-24T02:43:43.587Z,5.64
2023-03-24T02:46:20.050Z,5.62
2023-03-24T02:49:03.796Z,5.59
2023-03-24T02:51:40.177Z,5.57
2023-03-24T02:54:13.769Z,5.56
2023-03-24T02:56:48.345Z,5.58
2023-03-24T02:59:21.795Z,5.61
2023-03-24T03:01:57.811Z,5.66
2023-03-24T03:04:33.066Z,5.73
2023-03-24T03:07:09.692Z,5.80
2023-03-24T03:09:41.231Z,5.86
2023-03-24T03:12:13.929Z,5.87
2023-03-24T03:14:47.077Z,5.87
2023-03-24T03:17:19.526Z,5.86
2023-03-24T03:19:52.751Z,5.85
2023-03-24T03:22:26.896Z,5.83
2023-03-24T03:24:57.514Z,5.81
2023-03-24T03:27:31.738Z,5.80
2023-03-24T03:30:06.140Z,5.79
2023-03-24T03:32:40.434Z,5.75
2023-03-24T03:35:20.996Z,5.74
2023-03-24T03:37:57.370Z,5.72
2023-03-24T03:40:29.058Z,5.71
2023-03-24T03:43:00.786Z,5.69
2023-03-24T03:45:28.972Z,5.68
2023-03-24T03:47:57.343Z,5.68
2023-03-24T03:50:25.525Z,5.68
2023-03-24T03:52:54.147Z,5.70
2023-03-24T03:55:22.848Z,5.71
2023-03-24T03:57:51.904Z,5.74
2023-03-24T04:00:23.583Z,5.77
2023-03-24T04:03:09.152Z,5.82
2023-03-24T04:05:39.301Z,5.87
2023-03-24T04:08:18.262Z,5.92
2023-03-24T04:11:10.847Z,5.98
2023-03-24T04:13:47.246Z,6.03
2023-03-24T04:16:24.046Z,6.05
2023-03-24T04:19:03.898Z,6.05
2023-03-24T04:21:56.101Z,6.05
2023-03-24T04:24:34.938Z,6.03
2023-03-24T04:27:09.560Z,6.04
2023-03-24T04:29:46.938Z,6.04
2023-03-24T04:32:22.751Z,6.05
2023-03-24T04:35:01.554Z,6.04
2023-03-24T04:37:33.603Z,6.01
2023-03-24T04:40:08.521Z,5.97
2023-03-24T04:42:41.516Z,5.92
2023-03-24T04:45:11.053Z,5.91
2023-03-24T04:47:45.396Z,5.91
2023-03-24T04:50:15.384Z,5.92
2023-03-24T04:52:44.579Z,5.94
2023-03-24T04:55:33.518Z,5.99
2023-03-24T04:58:01.783Z,6.07
2023-03-24T05:00:31.368Z,6.13
2023-03-24T05:03:01.766Z,6.20
2023-03-24T05:05:29.937Z,6.25
2023-03-24T05:07:58.647Z,6.30
2023-03-24T05:10:26.776Z,6.36
2023-03-24T05:12:54.812Z,6.42
2023-03-24T05:15:23.027Z,6.48
2023-03-24T05:17:52.910Z,6.56
2023-03-24T05:20:23.035Z,6.60
2023-03-24T05:22:52.135Z,6.64
2023-03-24T05:25:21.320Z,6.67
2023-03-24T05:27:49.760Z,6.71
2023-03-24T05:30:20.316Z,6.74
2023-03-24T05:32:51.853Z,6.79
2023-03-24T05:35:20.476Z,6.85
2023-03-24T05:37:50.192Z,6.91
2023-03-24T05:40:18.355Z,6.96
2023-03-24T05:42:49.855Z,7.01
2023-03-24T05:45:19.284Z,7.05
2023-03-24T05:47:52.215Z,7.11
2023-03-24T05:50:20.797Z,7.15
2023-03-24T05:52:50.946Z,7.19
2023-03-24T05:55:19.515Z,7.24
2023-03-24T05:57:47.753Z,7.27
2023-03-24T06:00:18.092Z,7.31
2023-03-24T06:02:47.266Z,7.35
2023-03-24T06:05:15.638Z,7.41
2023-03-24T06:07:43.744Z,7.43
2023-03-24T06:10:18.577Z,7.46
2023-03-24T06:12:46.939Z,7.51
2023-03-24T06:15:17.453Z,7.48
2023-03-24T06:17:46.847Z,7.49
2023-03-24T06:20:18.504Z,7.54
2023-03-24T06:22:50.740Z,7.59
2023-03-24T06:25:24.087Z,7.63
2023-03-24T06:27:52.203Z,7.66
2023-03-24T06:30:20.992Z,7.69
2023-03-24T06:32:49.101Z,7.75
2023-03-24T06:35:20.462Z,7.76
2023-03-24T06:37:48.890Z,7.82
2023-03-24T06:40:17.888Z,7.83
2023-03-24T06:42:47.536Z,7.89
2023-03-24T06:45:15.659Z,7.94
2023-03-24T06:47:48.317Z,7.96
2023-03-24T06:50:16.463Z,8.02
2023-03-24T06:52:44.604Z,8.05
2023-03-24T06:55:13.191Z,8.07
2023-03-24T06:57:41.620Z,8.11
2023-03-24T07:00:13.686Z,8.11
2023-03-24T07:02:42.929Z,8.09
2023-03-24T07:05:12.520Z,8.10
2023-03-24T07:10:14.168Z,8.16
2023-03-24T07:12:42.344Z,8.18
2023-03-24T07:15:24.872Z,8.19
2023-03-24T07:17:53.113Z,8.20
2023-03-24T07:20:24.724Z,8.19
2023-03-24T07:22:56.434Z,8.21
2023-03-24T07:25:26.582Z,8.21
2023-03-24T07:27:56.028Z,8.23
2023-03-24T07:30:39.943Z,8.22
2023-03-24T07:33:12.469Z,8.22
2023-03-24T07:35:41.199Z,8.21
2023-03-24T07:38:10.248Z,8.20
2023-03-24T07:40:38.412Z,8.22
2023-03-24T07:43:07.100Z,8.20
2023-03-24T07:45:37.065Z,8.22
2023-03-24T07:48:05.383Z,8.26
2023-03-24T07:50:33.962Z,8.30
2023-03-24T07:53:02.216Z,8.37
2023-03-24T07:55:30.218Z,8.34
2023-03-24T07:57:58.700Z,8.34
2023-03-24T08:00:26.992Z,8.32
2023-03-24T08:02:56.589Z,8.35
2023-03-24T08:05:25.359Z,8.37
2023-03-24T08:07:55.935Z,8.40
2023-03-24T08:10:27.258Z,8.47
2023-03-24T08:12:56.044Z,8.53
2023-03-24T08:15:24.938Z,8.62
2023-03-24T08:17:53.176Z,8.66
2023-03-24T08:20:24.985Z,8.71
2023-03-24T08:22:54.254Z,8.75
2023-03-24T08:25:24.467Z,8.77
2023-03-24T08:27:53.308Z,8.79
2023-03-24T08:30:23.371Z,8.80
2023-03-24T08:32:53.221Z,8.81
2023-03-24T08:35:25.118Z,8.80
2023-03-24T08:37:53.313Z,8.78
2023-03-24T08:40:24.525Z,8.78
2023-03-24T08:42:55.424Z,8.78
2023-03-24T08:45:27.637Z,8.72
2023-03-24T08:47:57.015Z,8.67
2023-03-24T08:50:30.050Z,8.65
2023-03-24T08:52:58.950Z,8.64
2023-03-24T08:55:27.147Z,8.67
2023-03-24T08:57:56.092Z,8.67
2023-03-24T09:00:24.982Z,8.70
2023-03-24T09:02:55.029Z,8.72
2023-03-24T09:05:40.947Z,8.78
2023-03-24T09:08:14.888Z,8.81
2023-03-24T09:10:46.978Z,8.83
2023-03-24T09:13:15.424Z,8.86
2023-03-24T09:15:48.017Z,8.88
2023-03-24T09:18:17.333Z,8.91
2023-03-24T09:20:47.182Z,8.91
2023-03-24T09:23:17.268Z,8.93
2023-03-24T09:25:45.635Z,8.95
2023-03-24T09:28:15.010Z,9.01
2023-03-24T09:30:44.843Z,9.04
2023-03-24T09:33:13.500Z,9.08
2023-03-24T09:35:56.009Z,9.11
2023-03-24T09:38:27.241Z,9.12
2023-03-24T09:40:58.047Z,9.13
2023-03-24T09:43:33.570Z,9.13
2023-03-24T09:46:05.848Z,9.14
2023-03-24T09:48:38.022Z,9.16
2023-03-24T09:51:11.027Z,9.14
2023-03-24T09:53:46.451Z,9.14
2023-03-24T09:56:17.177Z,9.15
2023-03-24T09:58:50.543Z,9.12
2023-03-24T10:01:19.073Z,9.09
2023-03-24T10:03:47.995Z,9.01
2023-03-24T10:06:30.263Z,8.93
2023-03-24T10:09:17.082Z,8.89
2023-03-24T10:11:51.013Z,8.83
2023-03-24T10:14:36.545Z,8.76
2023-03-24T10:17:11.341Z,8.70
2023-03-24T10:19:48.275Z,8.66
2023-03-24T10:22:23.652Z,8.68
2023-03-24T10:25:00.972Z,8.67
2023-03-24T10:27:33.996Z,8.63
2023-03-24T10:30:08.234Z,8.61
2023-03-24T10:32:38.144Z,8.56
2023-03-24T10:35:10.305Z,8.51
2023-03-24T10:37:39.637Z,8.54
2023-03-24T10:40:18.562Z,8.58
2023-03-24T10:42:49.924Z,8.63
2023-03-24T10:45:38.177Z,8.66
2023-03-24T10:48:08.033Z,8.70
2023-03-24T10:50:38.468Z,8.76
2023-03-24T10:53:10.245Z,8.82
2023-03-24T10:55:43.533Z,8.85
2023-03-24T10:58:18.858Z,8.90
2023-03-24T11:00:48.022Z,8.94
2023-03-24T11:03:18.924Z,8.99
2023-03-24T11:05:47.861Z,9.05
2023-03-24T11:08:47.022Z,9.11
2023-03-24T11:11:32.020Z,9.11
2023-03-24T11:14:02.573Z,9.10
2023-03-24T11:16:32.591Z,9.12
2023-03-24T11:19:02.784Z,9.15
2023-03-24T11:21:39.864Z,9.20
2023-03-24T11:24:13.567Z,9.21
2023-03-24T11:26:47.486Z,9.21
2023-03-24T11:29:19.979Z,9.22
2023-03-24T11:31:57.451Z,9.24
2023-03-24T11:34:34.585Z,9.31
2023-03-24T11:37:04.999Z,9.36
2023-03-24T11:40:07.661Z,9.41
2023-03-24T11:42:45.979Z,9.49
2023-03-24T11:45:28.482Z,9.57
2023-03-24T11:47:59.816Z,9.60
2023-03-24T11:50:33.408Z,9.66
2023-03-24T11:53:07.802Z,9.71
2023-03-24T11:56:01.836Z,9.75
2023-03-24T11:58:38.084Z,9.80
2023-03-24T12:01:12.196Z,9.83
2023-03-24T12:03:57.147Z,9.88
2023-03-24T12:06:41.334Z,9.91
2023-03-24T12:09:21.802Z,9.92
2023-03-24T12:12:08.461Z,9.92
2023-03-24T12:14:51.999Z,9.95
2023-03-24T12:17:24.742Z,10.04
2023-03-24T12:20:10.769Z,10.06
2023-03-24T12:22:49.181Z,10.02
2023-03-24T12:25:32.521Z,10.04
2023-03-24T12:28:14.466Z,10.10
2023-03-24T12:30:53.774Z,10.24
2023-03-24T12:33:38.519Z,10.32
2023-03-24T12:36:31.995Z,10.48
2023-03-24T12:39:11.840Z,10.66
2023-03-24T12:42:03.685Z,10.75
2023-03-24T12:45:00.177Z,10.84
2023-03-24T12:47:48.056Z,11.02
2023-03-24T12:50:28.083Z,11.14
2023-03-24T12:53:09.185Z,11.21
2023-03-24T12:55:44.715Z,11.27
2023-03-24T12:58:20.562Z,11.42
2023-03-24T13:01:01.390Z,11.54
2023-03-24T13:03:35.493Z,11.47
2023-03-24T13:06:17.300Z,11.39
2023-03-24T13:08:53.983Z,11.40
2023-03-24T13:11:33.550Z,11.30
2023-03-24T13:14:06.381Z,11.30
2023-03-24T13:16:38.174Z,11.32
2023-03-24T13:19:19.122Z,11.40
2023-03-24T13:21:47.966Z,11.53
2023-03-24T13:24:16.598Z,11.51
2023-03-24T13:26:54.529Z,11.49
2023-03-24T13:29:58.905Z,11.52
2023-03-24T13:32:37.431Z,11.62
2023-03-24T13:35:16.156Z,11.65
2023-03-24T13:37:53.242Z,11.67
2023-03-24T13:40:29.399Z,11.67
2023-03-24T13:43:00.601Z,11.68
2023-03-24T13:45:41.563Z,11.65
2023-03-24T13:48:34.227Z,11.71
2023-03-24T13:51:17.632Z,11.91
2023-03-24T13:53:51.181Z,12.01
2023-03-24T13:56:29.604Z,12.07
2023-03-24T13:59:11.349Z,12.05
2023-03-24T14:01:41.044Z,12.10
2023-03-24T14:04:29.347Z,12.11
2023-03-24T14:07:00.422Z,12.10
2023-03-24T14:09:33.010Z,12.04
2023-03-24T14:12:19.279Z,11.97
2023-03-24T14:15:17.494Z,11.85
2023-03-24T14:17:48.420Z,11.79
2023-03-24T14:20:36.457Z,11.76
2023-03-24T14:23:07.167Z,11.77
2023-03-24T14:25:37.126Z,11.77
2023-03-24T14:28:19.106Z,11.80
2023-03-24T14:31:02.290Z,11.86
2023-03-24T14:33:32.088Z,11.93
2023-03-24T14:36:06.757Z,11.95
2023-03-24T14:38:38.938Z,11.91
2023-03-24T14:41:10.209Z,11.87
2023-03-24T14:43:59.267Z,11.78
2023-03-24T14:46:50.330Z,11.69
2023-03-24T14:49:28.577Z,11.62
2023-03-24T14:52:01.858Z,11.56
2023-03-24T14:54:42.361Z,11.48
2023-03-24T14:57:17.707Z,11.45
2023-03-24T14:59:52.132Z,11.42
2023-03-24T15:02:31.243Z,11.33
2023-03-24T15:05:22.630Z,11.21
2023-03-24T15:08:04.754Z,11.08
2023-03-24T15:10:39.172Z,11.00
2023-03-24T15:13:07.499Z,10.92
2023-03-24T15:15:53.943Z,10.83
2023-03-24T15:18:23.304Z,10.75
2023-03-24T15:20:52.006Z,10.69
2023-03-24T15:23:22.682Z,10.66
2023-03-24T15:25:54.498Z,10.59
2023-03-24T15:28:27.487Z,10.54
2023-03-24T15:30:59.274Z,10.52
2023-03-24T15:33:31.130Z,10.49
2023-03-24T15:36:01.260Z,10.49
2023-03-24T15:38:31.959Z,10.51
2023-03-24T15:41:06.996Z,10.48
2023-03-24T15:43:44.794Z,10.46
2023-03-24T15:46:24.566Z,10.52
2023-03-24T15:49:01.403Z,10.52
2023-03-24T15:51:49.326Z,10.46
2023-03-24T15:54:26.142Z,10.37
2023-03-24T15:57:17.374Z,10.28
2023-03-24T15:59:50.657Z,10.24
2023-03-24T16:02:43.568Z,10.20
2023-03-24T16:05:19.743Z,10.12
2023-03-24T16:07:59.196Z,10.03
2023-03-24T16:10:37.384Z,9.95
2023-03-24T16:13:15.691Z,9.88
2023-03-24T16:15:46.107Z,9.89
2023-03-24T16:18:18.788Z,9.89
2023-03-24T16:20:47.087Z,9.87
2023-03-24T16:23:15.694Z,9.84
2023-03-24T16:25:43.686Z,9.82
2023-03-24T16:28:14.894Z,9.77
2023-03-24T16:30:46.147Z,9.74
2023-03-24T16:33:15.223Z,9.67
2023-03-24T16:35:43.381Z,9.64
2023-03-24T16:38:14.082Z,9.59
2023-03-24T16:40:46.590Z,9.58
2023-03-24T16:43:16.875Z,9.54
2023-03-24T16:45:45.032Z,9.48
2023-03-24T16:48:13.553Z,9.41
2023-03-24T16:50:43.291Z,9.39
2023-03-24T16:53:11.371Z,9.36
2023-03-24T16:55:41.649Z,9.36
2023-03-24T16:58:11.859Z,9.33
2023-03-24T17:00:43.959Z,9.33
2023-03-24T17:03:13.986Z,9.31
2023-03-24T17:05:48.524Z,9.27
2023-03-24T17:08:18.637Z,9.26
2023-03-24T17:10:49.400Z,9.24
2023-03-24T17:13:19.717Z,9.24
2023-03-24T17:15:49.268Z,9.23
2023-03-24T17:18:17.923Z,9.21
2023-03-24T17:20:47.176Z,9.19
2023-03-24T17:23:19.039Z,9.18
2023-03-24T17:25:48.046Z,9.17
2023-03-24T17:28:17.069Z,9.14
2023-03-24T17:30:45.594Z,9.12
2023-03-24T17:33:16.113Z,9.12
2023-03-24T17:35:46.735Z,9.07
2023-03-24T17:38:16.668Z,9.06
2023-03-24T17:40:46.536Z,9.02
2023-03-24T17:43:16.526Z,9.01
2023-03-24T17:45:44.651Z,9.00
2023-03-24T17:48:12.742Z,8.98
2023-03-24T17:50:42.254Z,8.97
2023-03-24T17:53:13.692Z,8.95
2023-03-24T17:55:41.812Z,8.93
2023-03-24T17:58:10.182Z,8.91
2023-03-24T18:00:38.355Z,8.90
2023-03-24T18:03:06.693Z,8.85
2023-03-24T18:05:35.327Z,8.80
2023-03-24T18:08:05.910Z,8.73
2023-03-24T18:10:36.254Z,8.66
2023-03-24T18:13:07.717Z,8.60
2023-03-24T18:15:36.291Z,8.51
2023-03-24T18:18:05.039Z,8.45
2023-03-24T18:20:33.288Z,8.36
2023-03-24T18:23:01.665Z,8.26
2023-03-24T18:25:31.518Z,8.18
2023-03-24T18:28:00.249Z,8.10
2023-03-24T18:30:28.384Z,8.04
2023-03-24T18:33:01.465Z,7.98
2023-03-24T18:35:30.809Z,7.97
2023-03-24T18:37:58.952Z,7.96
2023-03-24T18:40:49.734Z,7.94
2023-03-24T18:43:18.214Z,7.93
2023-03-24T18:45:46.296Z,7.90
2023-03-24T18:48:15.774Z,7.87
2023-03-24T18:50:43.906Z,7.85
2023-03-24T18:53:13.488Z,7.85
2023-03-24T18:55:46.575Z,7.85
2023-03-24T18:58:19.577Z,7.84
2023-03-24T19:00:50.984Z,7.87
2023-03-24T19:03:21.992Z,7.87
2023-03-24T19:05:53.178Z,7.90
2023-03-24T19:08:21.781Z,7.88
2023-03-24T19:10:50.493Z,7.87
2023-03-24T19:13:20.156Z,7.87
2023-03-24T19:15:49.810Z,7.85
2023-03-24T19:18:18.172Z,7.85
2023-03-24T19:20:46.243Z,7.85
2023-03-24T19:23:14.702Z,7.84
2023-03-24T19:25:42.916Z,7.86
2023-03-24T19:28:11.147Z,7.90
2023-03-24T19:30:42.644Z,7.91
2023-03-24T19:33:13.024Z,7.95
2023-03-24T19:35:41.563Z,7.97
2023-03-24T19:38:10.941Z,7.99
2023-03-24T19:40:41.933Z,8.02
2023-03-24T19:43:12.228Z,8.04
2023-03-24T19:45:43.014Z,8.06
2023-03-24T19:48:12.442Z,8.08
2023-03-24T19:50:41.930Z,8.10
2023-03-24T19:53:10.213Z,8.10
2023-03-24T19:55:38.628Z,8.10
2023-03-24T19:58:07.472Z,8.09
2023-03-24T20:00:36.100Z,8.09
2023-03-24T20:03:06.014Z,8.10
2023-03-24T20:05:34.770Z,8.08
2023-03-24T20:08:03.014Z,8.09
2023-03-24T20:10:31.365Z,8.08
2023-03-24T20:13:08.456Z,8.06
2023-03-24T20:15:47.214Z,8.03
2023-03-24T20:18:24.444Z,7.98
2023-03-24T20:20:52.600Z,7.95
2023-03-24T20:23:20.871Z,7.90
2023-03-24T20:25:49.605Z,7.86
2023-03-24T20:28:18.787Z,7.81
2023-03-24T20:30:46.827Z,7.77
2023-03-24T20:33:17.032Z,7.73
2023-03-24T20:35:45.832Z,7.71
2023-03-24T20:38:13.870Z,7.71
2023-03-24T20:40:42.554Z,7.72
2023-03-24T20:43:12.268Z,7.75
2023-03-24T20:45:44.650Z,7.76
2023-03-24T20:48:12.865Z,7.78
2023-03-24T20:50:43.414Z,7.80
2023-03-24T20:53:11.602Z,7.81
2023-03-24T20:55:39.863Z,7.80
2023-03-24T20:58:08.541Z,7.80
2023-03-24T21:00:38.057Z,7.79
2023-03-24T21:03:06.591Z,7.79
2023-03-24T21:05:35.557Z,7.78
2023-03-24T21:08:05.497Z,7.78
2023-03-24T21:10:36.143Z,7.75
2023-03-24T21:13:04.558Z,7.72
2023-03-24T21:15:33.096Z,7.67
2023-03-24T21:18:01.230Z,7.62
2023-03-24T21:20:30.794Z,7.58
2023-03-24T21:23:03.492Z,7.50
2023-03-24T21:25:34.783Z,7.43
2023-03-24T21:28:03.401Z,7.39
2023-03-24T21:30:32.731Z,7.30
2023-03-24T21:33:01.153Z,7.25
2023-03-24T21:35:30.424Z,7.20
2023-03-24T21:37:58.554Z,7.18
2023-03-24T21:40:27.026Z,7.14
2023-03-24T21:43:04.662Z,7.10
2023-03-24T21:45:36.047Z,7.10
2023-03-24T21:48:05.898Z,7.11
2023-03-24T21:50:38.926Z,7.13
2023-03-24T21:53:14.901Z,7.13
2023-03-24T21:55:43.548Z,7.15
2023-03-24T21:58:12.991Z,7.13
2023-03-24T22:00:41.260Z,7.10
2023-03-24T22:03:09.438Z,7.04
2023-03-24T22:05:40.068Z,6.97
2023-03-24T22:08:08.509Z,6.92
2023-03-24T22:10:37.188Z,6.86
2023-03-24T22:13:05.797Z,6.80
2023-03-24T22:15:36.826Z,6.74
2023-03-24T22:18:05.496Z,6.68
2023-03-24T22:20:33.779Z,6.61
2023-03-24T22:23:03.595Z,6.55
2023-03-24T22:25:32.334Z,6.49
2023-03-24T22:28:00.505Z,6.46
2023-03-24T22:30:28.585Z,6.42
2023-03-24T22:32:58.085Z,6.40
2023-03-24T22:35:47.640Z,6.39
2023-03-24T22:38:17.426Z,6.36
2023-03-24T22:40:45.549Z,6.35
2023-03-24T22:43:14.034Z,6.32
2023-03-24T22:45:43.112Z,6.30
2023-03-24T22:48:12.838Z,6.28
2023-03-24T22:50:42.422Z,6.26
2023-03-24T22:53:10.865Z,6.26
2023-03-24T22:55:42.102Z,6.25
2023-03-24T22:58:10.928Z,6.25
2023-03-24T23:00:38.988Z,6.24
2023-03-24T23:03:07.250Z,6.22
2023-03-24T23:05:41.084Z,6.21
2023-03-24T23:08:10.168Z,6.20
2023-03-24T23:10:40.102Z,6.21
2023-03-24T23:13:08.794Z,6.21
2023-03-24T23:15:37.922Z,6.23
2023-03-24T23:18:06.766Z,6.23
2023-03-24T23:20:37.725Z,6.24
2023-03-24T23:23:06.927Z,6.23
2023-03-24T23:25:36.688Z,6.27
2023-03-24T23:28:04.836Z,6.28
2023-03-24T23:30:33.249Z,6.29
2023-03-24T23:33:02.198Z,6.30
2023-03-24T23:35:30.821Z,6.31
2023-03-24T23:38:02.363Z,6.30
2023-03-24T23:40:30.530Z,6.30
2023-03-24T23:43:00.391Z,6.30
2023-03-24T23:45:28.635Z,6.30
2023-03-24T23:47:56.877Z,6.30
2023-03-24T23:50:26.183Z,6.30
2023-03-24T23:52:54.292Z,6.29
2023-03-24T23:55:25.932Z,6.29
2023-03-24T23:57:54.786Z,6.29
